Time;durP1;ratioP1;P1;durP2;ratioP2;P2;SDS_P1;SDS_P2;PMS_P1;PMS_P2;Temp;Humidity;BMP_temperature;BMP_pressure;BME280_temperature;BME280_humidity;BME280_pressure;Samples;Min_cycle;Max_cycle;Signal;HPM_P1;HPM_P2
2022/08/15 00:00:34;;;;;;;8.40;7.47;;;;;;;;;;4971745;28;20054;-78
2022/08/15 00:03:01;;;;;;;10.05;7.45;;;;;;;;;;4973978;28;20107;-77
2022/08/15 00:05:27;;;;;;;8.95;7.90;;;;;;;;;;4968851;28;20389;-77
2022/08/15 00:07:54;;;;;;;10.13;7.00;;;;;;;;;;4969920;28;20070;-78
2022/08/15 00:10:21;;;;;;;9.10;7.30;;;;;;;;;;4968931;28;20035;-77
2022/08/15 00:12:48;;;;;;;12.40;8.00;;;;;;;;;;4968492;28;20032;-77
2022/08/15 00:15:16;;;;;;;12.02;8.25;;;;;;;;;;4975002;28;20050;-77
2022/08/15 00:17:43;;;;;;;9.95;7.97;;;;;;;;;;4970839;28;20152;-77
2022/08/15 00:20:10;;;;;;;8.32;7.10;;;;;;;;;;4980811;28;20022;-78
2022/08/15 00:22:36;;;;;;;8.35;7.45;;;;;;;;;;4971046;28;20461;-76
2022/08/15 00:25:02;;;;;;;13.48;7.80;;;;;;;;;;4972398;28;20031;-77
2022/08/15 00:27:28;;;;;;;9.63;7.72;;;;;;;;;;4971312;28;20098;-77
2022/08/15 00:29:54;;;;;;;9.38;8.35;;;;;;;;;;4976172;28;20030;-78
2022/08/15 00:32:23;;;;;;;9.05;8.15;;;;;;;;;;4973668;28;20084;-77
2022/08/15 00:34:50;;;;;;;12.45;8.30;;;;;;;;;;4973942;28;20031;-77
2022/08/15 00:37:18;;;;;;;11.18;8.43;;;;;;;;;;4974007;28;20109;-76
2022/08/15 00:39:45;;;;;;;10.45;8.23;;;;;;;;;;4979559;28;20026;-76
2022/08/15 00:42:11;;;;;;;11.85;8.40;;;;;;;;;;4977827;28;20022;-76
2022/08/15 00:44:40;;;;;;;13.13;9.02;;;;;;;;;;4971789;28;20054;-76
2022/08/15 00:47:09;;;;;;;12.52;8.93;;;;;;;;;;4981289;28;20499;-75
2022/08/15 00:49:36;;;;;;;12.20;8.63;;;;;;;;;;4977659;28;20031;-76
2022/08/15 00:52:02;;;;;;;12.18;8.48;;;;;;;;;;4978237;28;20089;-77
2022/08/15 00:54:38;;;;;;;11.27;8.10;;;;;;;;;;4977664;28;20033;-77
2022/08/15 00:57:12;;;;;;;11.43;8.98;;;;;;;;;;4973949;28;20327;-77
2022/08/15 00:59:40;;;;;;;13.13;9.23;;;;;;;;;;4970587;28;20026;-76
2022/08/15 01:02:08;;;;;;;11.35;8.25;;;;;;;;;;4974172;28;20377;-76
2022/08/15 01:04:35;;;;;;;9.40;8.35;;;;;;;;;;4966551;28;20027;-77
2022/08/15 01:07:02;;;;;;;9.85;8.77;;;;;;;;;;4973827;28;20019;-77
2022/08/15 01:09:28;;;;;;;10.68;9.55;;;;;;;;;;4967714;28;20433;-77
2022/08/15 01:12:16;;;;;;;10.18;8.88;;;;;;;;;;4971764;28;20054;-77
2022/08/15 01:14:46;;;;;;;11.43;8.90;;;;;;;;;;4970548;28;20034;-76
2022/08/15 01:17:12;;;;;;;10.93;9.15;;;;;;;;;;4970109;28;20026;-76
2022/08/15 01:19:43;;;;;;;11.68;10.25;;;;;;;;;;4973004;28;20029;-75
2022/08/15 01:22:12;;;;;;;11.85;9.10;;;;;;;;;;4970857;28;20492;-77
2022/08/15 01:24:58;;;;;;;12.48;8.82;;;;;;;;;;4973431;28;20111;-78
2022/08/15 01:27:24;;;;;;;;;;;;;;;;;;4975520;28;20104;-77
2022/08/15 01:29:51;;;;;;;14.32;9.25;;;;;;;;;;4988138;28;19918;-79
2022/08/15 01:32:17;;;;;;;10.57;9.43;;;;;;;;;;4970934;28;20033;-76
2022/08/15 01:34:44;;;;;;;15.15;9.50;;;;;;;;;;4971666;28;20501;-76
2022/08/15 01:37:10;;;;;;;10.60;9.43;;;;;;;;;;4976198;28;20479;-77
2022/08/15 01:39:39;;;;;;;10.93;9.73;;;;;;;;;;4973230;28;20359;-78
2022/08/15 01:42:08;;;;;;;11.88;8.90;;;;;;;;;;4973992;28;20532;-76
2022/08/15 01:44:43;;;;;;;11.48;8.38;;;;;;;;;;4978837;28;20035;-77
2022/08/15 01:47:27;;;;;;;11.07;9.40;;;;;;;;;;4975093;28;20038;-77
2022/08/15 01:50:08;;;;;;;9.07;8.15;;;;;;;;;;4974515;28;20045;-76
2022/08/15 01:52:37;;;;;;;9.38;7.78;;;;;;;;;;4972055;28;20026;-77
2022/08/15 01:55:04;;;;;;;10.20;8.50;;;;;;;;;;4975983;28;20027;-76
2022/08/15 01:57:30;;;;;;;10.57;8.45;;;;;;;;;;4970021;28;20041;-77
2022/08/15 01:59:57;;;;;;;12.90;8.85;;;;;;;;;;4971317;28;20465;-77
2022/08/15 02:02:25;;;;;;;11.90;9.63;;;;;;;;;;4965630;28;20027;-77
2022/08/15 02:04:51;;;;;;;10.90;9.07;;;;;;;;;;4968649;28;20106;-76
2022/08/15 02:07:20;;;;;;;11.48;9.43;;;;;;;;;;4969653;28;20081;-75
2022/08/15 02:09:47;;;;;;;11.57;9.40;;;;;;;;;;4972639;28;20109;-75
2022/08/15 02:12:14;;;;;;;11.48;9.68;;;;;;;;;;4973218;28;20382;-77
2022/08/15 02:14:41;;;;;;;11.55;9.18;;;;;;;;;;4975020;28;20093;-76
2022/08/15 02:17:08;;;;;;;13.23;9.85;;;;;;;;;;4973038;28;20483;-76
2022/08/15 02:19:35;;;;;;;14.18;11.90;;;;;;;;;;4977572;28;20394;-77
2022/08/15 02:22:01;;;;;;;16.85;12.15;;;;;;;;;;4967686;28;20038;-76
2022/08/15 02:24:28;;;;;;;17.38;11.63;;;;;;;;;;4973136;28;20093;-76
2022/08/15 02:26:54;;;;;;;15.25;11.65;;;;;;;;;;4979105;28;20023;-75
2022/08/15 02:29:22;;;;;;;17.42;12.65;;;;;;;;;;4979939;28;20038;-76
2022/08/15 02:31:51;;;;;;;16.00;12.10;;;;;;;;;;4978161;28;20106;-77
2022/08/15 02:34:18;;;;;;;15.40;12.90;;;;;;;;;;4980302;28;20053;-76
2022/08/15 02:36:44;;;;;;;14.50;11.07;;;;;;;;;;4976437;28;20387;-75
2022/08/15 02:39:11;;;;;;;15.95;12.05;;;;;;;;;;4969940;28;20034;-75
2022/08/15 02:41:39;;;;;;;15.02;11.23;;;;;;;;;;4978195;28;20054;-75
2022/08/15 02:44:06;;;;;;;18.50;13.18;;;;;;;;;;4972736;28;20023;-76
2022/08/15 02:46:32;;;;;;;15.57;11.63;;;;;;;;;;4976028;28;20088;-76
2022/08/15 02:49:01;;;;;;;16.90;11.20;;;;;;;;;;4967822;28;20043;-76
2022/08/15 02:51:28;;;;;;;13.85;11.85;;;;;;;;;;4977469;28;20027;-75
2022/08/15 02:53:55;;;;;;;17.35;11.45;;;;;;;;;;4980180;28;20026;-76
2022/08/15 02:56:22;;;;;;;11.82;10.60;;;;;;;;;;4974131;28;20066;-76
2022/08/15 02:58:50;;;;;;;13.10;11.05;;;;;;;;;;4970807;28;20773;-75
2022/08/15 03:01:17;;;;;;;14.35;11.98;;;;;;;;;;4969962;28;20031;-76
2022/08/15 03:03:45;;;;;;;14.95;11.85;;;;;;;;;;4967215;28;20027;-75
2022/08/15 03:06:13;;;;;;;12.88;9.95;;;;;;;;;;4975172;28;20022;-77
2022/08/15 03:08:40;;;;;;;12.10;10.20;;;;;;;;;;4967711;28;20050;-77
2022/08/15 03:11:08;;;;;;;11.60;10.10;;;;;;;;;;4970726;28;20037;-75
2022/08/15 03:13:34;;;;;;;12.85;9.95;;;;;;;;;;4978978;28;20030;-75
2022/08/15 03:16:01;;;;;;;11.65;10.27;;;;;;;;;;4972309;28;20561;-76
2022/08/15 03:18:34;;;;;;;13.18;10.50;;;;;;;;;;4973101;28;20034;-76
2022/08/15 03:21:01;;;;;;;12.98;10.48;;;;;;;;;;4973961;28;20513;-75
2022/08/15 03:23:32;;;;;;;12.75;9.98;;;;;;;;;;4971327;28;20043;-76
2022/08/15 03:25:59;;;;;;;11.95;10.57;;;;;;;;;;4978566;28;20026;-75
2022/08/15 03:28:28;;;;;;;15.43;10.82;;;;;;;;;;4977145;28;20172;-75
2022/08/15 03:30:54;;;;;;;13.15;10.65;;;;;;;;;;4980149;28;20113;-77
2022/08/15 03:33:20;;;;;;;13.38;11.20;;;;;;;;;;4973919;28;20042;-76
2022/08/15 03:35:48;;;;;;;12.77;9.85;;;;;;;;;;4973781;28;20133;-76
2022/08/15 03:38:15;;;;;;;11.98;10.68;;;;;;;;;;4974275;28;20022;-76
2022/08/15 03:40:42;;;;;;;12.05;10.77;;;;;;;;;;4971989;28;20269;-76
2022/08/15 03:43:11;;;;;;;12.52;10.60;;;;;;;;;;4970358;28;20477;-76
2022/08/15 03:45:37;;;;;;;11.48;10.38;;;;;;;;;;4983386;28;20037;-76
2022/08/15 03:48:05;;;;;;;14.23;10.93;;;;;;;;;;4970132;28;20023;-76
2022/08/15 03:50:32;;;;;;;15.38;11.07;;;;;;;;;;4971785;28;20096;-75
2022/08/15 03:53:02;;;;;;;13.57;11.80;;;;;;;;;;4965778;28;20026;-75
2022/08/15 03:55:30;;;;;;;15.15;11.43;;;;;;;;;;4966872;28;20034;-76
2022/08/15 03:57:57;;;;;;;12.98;11.57;;;;;;;;;;4970156;28;20370;-76
2022/08/15 04:00:25;;;;;;;14.90;11.57;;;;;;;;;;4968713;28;20051;-76
2022/08/15 04:02:53;;;;;;;14.20;11.95;;;;;;;;;;4973348;28;20041;-77
2022/08/15 04:05:20;;;;;;;12.70;11.05;;;;;;;;;;4978352;28;20026;-75
2022/08/15 04:07:46;;;;;;;16.38;12.13;;;;;;;;;;4968431;28;20047;-76
2022/08/15 04:10:14;;;;;;;13.52;11.60;;;;;;;;;;4970612;28;20023;-76
2022/08/15 04:12:41;;;;;;;14.88;11.57;;;;;;;;;;4971725;28;20038;-76
2022/08/15 04:15:09;;;;;;;13.65;11.07;;;;;;;;;;4964104;28;20615;-76
2022/08/15 04:17:35;;;;;;;14.85;12.05;;;;;;;;;;4969828;28;20031;-76
2022/08/15 04:20:02;;;;;;;14.68;11.93;;;;;;;;;;4971485;28;20034;-77
2022/08/15 04:22:36;;;;;;;21.98;12.57;;;;;;;;;;4975516;28;20113;-76
2022/08/15 04:25:05;;;;;;;22.60;13.95;;;;;;;;;;4972510;28;20106;-77
2022/08/15 04:27:31;;;;;;;17.15;12.85;;;;;;;;;;4977303;28;20496;-77
2022/08/15 04:29:57;;;;;;;20.00;13.35;;;;;;;;;;4972606;28;20023;-78
2022/08/15 04:32:26;;;;;;;14.25;11.40;;;;;;;;;;4972579;28;20426;-77
2022/08/15 04:34:52;;;;;;;13.23;11.73;;;;;;;;;;4976961;28;20157;-77
2022/08/15 04:37:18;;;;;;;16.85;12.30;;;;;;;;;;4976253;28;20027;-77
2022/08/15 04:39:45;;;;;;;16.55;13.57;;;;;;;;;;4970101;28;20023;-77
2022/08/15 04:42:11;;;;;;;19.15;12.63;;;;;;;;;;4975906;28;20124;-77
2022/08/15 04:44:39;;;;;;;15.65;13.35;;;;;;;;;;4971020;28;20033;-78
2022/08/15 04:47:05;;;;;;;18.73;14.52;;;;;;;;;;4970818;28;20026;-77
2022/08/15 04:49:32;;;;;;;15.20;13.15;;;;;;;;;;4978556;28;20030;-76
2022/08/15 04:52:18;;;;;;;14.50;12.55;;;;;;;;;;4984120;28;20022;-77
2022/08/15 04:54:45;;;;;;;14.93;12.55;;;;;;;;;;4988025;28;20494;-78
2022/08/15 04:57:12;;;;;;;14.80;12.90;;;;;;;;;;4979551;28;20473;-78
2022/08/15 04:59:39;;;;;;;14.48;12.07;;;;;;;;;;4977201;28;20034;-78
2022/08/15 05:02:08;;;;;;;15.30;12.80;;;;;;;;;;4976258;28;20027;-77
2022/08/15 05:04:34;;;;;;;15.20;12.55;;;;;;;;;;4967983;28;20035;-78
2022/08/15 05:07:00;;;;;;;16.08;13.63;;;;;;;;;;4973474;28;20038;-78
2022/08/15 05:09:26;;;;;;;21.05;15.30;;;;;;;;;;4965848;28;20339;-78
2022/08/15 05:11:53;;;;;;;19.63;14.50;;;;;;;;;;4975496;28;20022;-78
2022/08/15 05:14:19;;;;;;;17.10;14.05;;;;;;;;;;4969275;28;20054;-78
2022/08/15 05:16:45;;;;;;;16.48;14.38;;;;;;;;;;4976393;28;20047;-78
2022/08/15 05:19:11;;;;;;;19.45;14.65;;;;;;;;;;4974597;28;20094;-78
2022/08/15 05:21:38;;;;;;;17.48;14.43;;;;;;;;;;4977057;28;20073;-78
2022/08/15 05:24:05;;;;;;;16.50;13.57;;;;;;;;;;4974133;28;20026;-78
2022/08/15 05:26:33;;;;;;;18.40;14.52;;;;;;;;;;4973626;28;20027;-77
2022/08/15 05:28:59;;;;;;;19.58;15.45;;;;;;;;;;4978565;28;20036;-79
2022/08/15 05:31:26;;;;;;;19.48;15.38;;;;;;;;;;4973002;28;20415;-78
2022/08/15 05:33:52;;;;;;;19.17;15.48;;;;;;;;;;4977561;28;20045;-78
2022/08/15 05:36:19;;;;;;;17.50;14.82;;;;;;;;;;4974111;28;20486;-79
2022/08/15 05:38:47;;;;;;;18.00;14.20;;;;;;;;;;4969297;28;20023;-78
2022/08/15 05:41:23;;;;;;;18.83;14.38;;;;;;;;;;4968219;28;20048;-78
2022/08/15 05:44:01;;;;;;;19.77;15.15;;;;;;;;;;4969675;28;20093;-78
2022/08/15 05:46:27;;;;;;;17.70;14.15;;;;;;;;;;4971566;28;20497;-79
2022/08/15 05:48:59;;;;;;;19.65;15.07;;;;;;;;;;4965806;28;20027;-77
2022/08/15 05:51:30;;;;;;;21.67;15.88;;;;;;;;;;4971541;28;20500;-78
2022/08/15 05:54:12;;;;;;;20.52;14.95;;;;;;;;;;4974254;28;20019;-78
2022/08/15 05:56:38;;;;;;;24.38;15.82;;;;;;;;;;4963955;28;20101;-78
2022/08/15 05:59:06;;;;;;;19.75;15.43;;;;;;;;;;4964275;28;20025;-78
2022/08/15 06:01:41;;;;;;;19.88;16.25;;;;;;;;;;4965271;28;20101;-78
2022/08/15 06:04:16;;;;;;;21.08;15.80;;;;;;;;;;4967354;28;20513;-77
2022/08/15 06:06:45;;;;;;;19.75;16.17;;;;;;;;;;4969656;28;20030;-77
2022/08/15 06:09:14;;;;;;;19.08;14.80;;;;;;;;;;4968092;28;20078;-77
2022/08/15 06:11:43;;;;;;;19.77;15.55;;;;;;;;;;4967523;28;20285;-77
2022/08/15 06:14:14;;;;;;;19.15;15.20;;;;;;;;;;4988396;28;20082;-78
2022/08/15 06:16:46;;;;;;;18.75;13.27;;;;;;;;;;4974034;28;20031;-78
2022/08/15 06:19:32;;;;;;;14.13;12.20;;;;;;;;;;4972916;28;20045;-78
2022/08/15 06:22:06;;;;;;;16.85;12.48;;;;;;;;;;4972386;28;20109;-77
2022/08/15 06:24:50;;;;;;;18.42;13.27;;;;;;;;;;4969384;28;20385;-77
2022/08/15 06:27:43;;;;;;;15.05;12.70;;;;;;;;;;4991062;28;20049;-77
2022/08/15 06:30:12;;;;;;;16.05;12.77;;;;;;;;;;4969975;28;20027;-77
2022/08/15 06:33:06;;;;;;;13.05;10.45;;;;;;;;;;4966283;28;20085;-77
2022/08/15 06:35:52;;;;;;;14.55;11.73;;;;;;;;;;4966344;28;20101;-77
2022/08/15 06:38:25;;;;;;;12.18;10.88;;;;;;;;;;4970645;28;20031;-77
2022/08/15 06:40:58;;;;;;;12.48;10.57;;;;;;;;;;4966329;28;20023;-77
2022/08/15 06:43:25;;;;;;;12.32;10.57;;;;;;;;;;4971020;28;20033;-78
2022/08/15 06:45:52;;;;;;;12.27;9.57;;;;;;;;;;4970243;28;20023;-78
2022/08/15 06:48:26;;;;;;;11.68;9.85;;;;;;;;;;4967380;28;20100;-78
2022/08/15 06:50:54;;;;;;;10.93;9.68;;;;;;;;;;4966339;28;20026;-76
2022/08/15 06:53:23;;;;;;;10.57;9.32;;;;;;;;;;4977231;28;20097;-77
2022/08/15 06:55:53;;;;;;;11.90;9.45;;;;;;;;;;4960326;28;20035;-77
2022/08/15 06:58:37;;;;;;;10.50;8.73;;;;;;;;;;4971764;28;20034;-77
2022/08/15 07:01:19;;;;;;;9.85;8.73;;;;;;;;;;4969735;28;20050;-78
2022/08/15 07:04:06;;;;;;;8.88;7.97;;;;;;;;;;4967811;28;20023;-77
2022/08/15 07:06:37;;;;;;;9.80;8.20;;;;;;;;;;4974263;28;20022;-78
2022/08/15 07:09:11;;;;;;;8.43;7.07;;;;;;;;;;4967409;28;20106;-77
2022/08/15 07:11:45;;;;;;;8.48;7.57;;;;;;;;;;4966362;28;20379;-77
2022/08/15 07:14:14;;;;;;;9.00;7.53;;;;;;;;;;4975188;28;20018;-77
2022/08/15 07:16:41;;;;;;;9.85;7.38;;;;;;;;;;4972682;28;20031;-78
2022/08/15 07:19:10;;;;;;;9.77;7.57;;;;;;;;;;4967521;28;20087;-77
2022/08/15 07:21:36;;;;;;;7.50;6.70;;;;;;;;;;4971647;28;20049;-77
2022/08/15 07:24:05;;;;;;;9.40;7.00;;;;;;;;;;4977947;28;20492;-76
2022/08/15 07:26:36;;;;;;;8.55;7.45;;;;;;;;;;4967365;28;20030;-78
2022/08/15 07:29:08;;;;;;;8.77;7.28;;;;;;;;;;4969249;28;20048;-77
2022/08/15 07:31:36;;;;;;;7.80;6.90;;;;;;;;;;4973889;28;20026;-77
2022/08/15 07:34:21;;;;;;;9.50;7.35;;;;;;;;;;4965672;28;20078;-77
2022/08/15 07:36:58;;;;;;;8.82;7.93;;;;;;;;;;4968600;28;20027;-77
2022/08/15 07:39:26;;;;;;;9.55;8.13;;;;;;;;;;4968816;28;20062;-77
2022/08/15 07:41:53;;;;;;;10.30;8.82;;;;;;;;;;4964765;28;20050;-77
2022/08/15 07:44:19;;;;;;;10.48;8.55;;;;;;;;;;4969148;28;20031;-77
2022/08/15 07:46:56;;;;;;;10.25;8.02;;;;;;;;;;4973689;28;20069;-78
2022/08/15 07:49:34;;;;;;;9.30;8.23;;;;;;;;;;4966786;28;20429;-78
2022/08/15 07:52:24;;;;;;;13.13;8.93;;;;;;;;;;4975416;28;20125;-78
2022/08/15 07:54:55;;;;;;;10.80;9.00;;;;;;;;;;4987906;28;20035;-78
2022/08/15 07:57:30;;;;;;;11.43;9.15;;;;;;;;;;4966140;28;20042;-78
2022/08/15 08:00:12;;;;;;;9.50;8.25;;;;;;;;;;4976782;28;20018;-78
2022/08/15 08:02:46;;;;;;;8.85;7.95;;;;;;;;;;4978517;28;20029;-77
2022/08/15 08:05:12;;;;;;;10.60;8.10;;;;;;;;;;4977589;28;20042;-77
2022/08/15 08:07:46;;;;;;;10.18;7.78;;;;;;;;;;4971282;28;20043;-78
2022/08/15 08:10:16;;;;;;;10.05;8.57;;;;;;;;;;4974146;28;20030;-77
2022/08/15 08:12:45;;;;;;;12.25;8.40;;;;;;;;;;4972931;28;20026;-76
2022/08/15 08:15:21;;;;;;;12.05;8.88;;;;;;;;;;4978305;28;20482;-77
2022/08/15 08:17:51;;;;;;;10.13;8.73;;;;;;;;;;4970547;28;20065;-78
2022/08/15 08:20:30;;;;;;;10.55;8.52;;;;;;;;;;4989091;28;20034;-78
2022/08/15 08:23:15;;;;;;;10.88;8.40;;;;;;;;;;4972586;28;20023;-77
2022/08/15 08:25:58;;;;;;;10.82;9.00;;;;;;;;;;4969452;28;20034;-78
2022/08/15 08:28:28;;;;;;;13.32;9.50;;;;;;;;;;4971062;28;20023;-78
2022/08/15 08:30:55;;;;;;;10.30;9.20;;;;;;;;;;4973276;28;20030;-78
2022/08/15 08:33:34;;;;;;;12.23;9.45;;;;;;;;;;4970384;28;20031;-78
2022/08/15 08:36:10;;;;;;;13.00;9.32;;;;;;;;;;4974197;28;20030;-79
2022/08/15 08:39:09;;;;;;;12.05;9.88;;;;;;;;;;4971308;28;20155;-77
2022/08/15 08:41:45;;;;;;;13.07;9.73;;;;;;;;;;4972394;28;20031;-77
2022/08/15 08:44:27;;;;;;;13.05;9.98;;;;;;;;;;4972543;28;20081;-78
2022/08/15 08:46:59;;;;;;;15.27;9.35;;;;;;;;;;4991276;28;20448;-78
2022/08/15 08:49:56;;;;;;;12.40;8.80;;;;;;;;;;4970311;28;20038;-79
2022/08/15 08:52:29;;;;;;;12.48;10.20;;;;;;;;;;4955756;28;20583;-83
2022/08/15 08:55:01;;;;;;;16.00;10.02;;;;;;;;;;4968187;28;20030;-78
2022/08/15 08:57:43;;;;;;;13.30;10.85;;;;;;;;;;4972269;28;20026;-78
2022/08/15 09:00:14;;;;;;;12.18;10.52;;;;;;;;;;4979095;28;20031;-78
2022/08/15 09:02:43;;;;;;;12.93;10.52;;;;;;;;;;4970107;28;20113;-78
2022/08/15 09:05:12;;;;;;;10.80;9.63;;;;;;;;;;4976585;28;20417;-78
2022/08/15 09:07:41;;;;;;;10.40;8.85;;;;;;;;;;4969160;28;20058;-77
2022/08/15 09:10:08;;;;;;;10.63;9.52;;;;;;;;;;4990930;28;20039;-81
2022/08/15 09:15:29;;;;;;;11.10;8.73;;;;;;;;;;4972112;28;20065;-78
2022/08/15 09:18:00;;;;;;;10.77;9.43;;;;;;;;;;4983064;28;20050;-79
2022/08/15 09:20:34;;;;;;;10.80;9.45;;;;;;;;;;4969215;28;20030;-81
2022/08/15 09:23:01;;;;;;;11.93;9.18;;;;;;;;;;4968939;28;20046;-78
2022/08/15 09:25:27;;;;;;;11.10;8.98;;;;;;;;;;4974238;28;20213;-79
2022/08/15 09:28:05;;;;;;;10.23;8.32;;;;;;;;;;4977894;28;20097;-77
2022/08/15 09:30:32;;;;;;;9.63;7.82;;;;;;;;;;4975385;28;20113;-77
2022/08/15 09:33:20;;;;;;;9.07;8.18;;;;;;;;;;4969248;28;20637;-78
2022/08/15 09:35:53;;;;;;;10.77;8.68;;;;;;;;;;4974129;28;20409;-78
2022/08/15 09:38:38;;;;;;;9.95;8.00;;;;;;;;;;4966730;28;20279;-77
2022/08/15 09:41:09;;;;;;;10.27;9.18;;;;;;;;;;4984359;28;20014;-78
2022/08/15 09:43:35;;;;;;;10.40;8.73;;;;;;;;;;4976397;28;20096;-78
2022/08/15 09:46:04;;;;;;;12.32;8.27;;;;;;;;;;4972449;28;20029;-77
2022/08/15 09:48:33;;;;;;;10.80;8.30;;;;;;;;;;4974758;28;20105;-77
2022/08/15 09:51:25;;;;;;;9.85;8.70;;;;;;;;;;4974931;28;20026;-77
2022/08/15 09:54:00;;;;;;;10.60;8.23;;;;;;;;;;4948667;28;20031;-78
2022/08/15 09:56:36;;;;;;;;;;;;;;;;;;4978940;28;20030;-77
2022/08/15 09:59:02;;;;;;;11.98;7.43;;;;;;;;;;4966927;28;19909;-78
2022/08/15 10:01:29;;;;;;;10.63;7.10;;;;;;;;;;4968054;28;20027;-78
2022/08/15 10:04:06;;;;;;;7.30;6.38;;;;;;;;;;4974861;28;20038;-77
2022/08/15 10:06:48;;;;;;;12.02;7.25;;;;;;;;;;4969713;28;20473;-79
2022/08/15 10:09:16;;;;;;;8.10;6.97;;;;;;;;;;4970239;28;20520;-76
2022/08/15 10:11:42;;;;;;;6.57;5.90;;;;;;;;;;4971103;28;20030;-78
2022/08/15 10:14:29;;;;;;;9.70;6.30;;;;;;;;;;4974745;28;20058;-77
2022/08/15 10:16:59;;;;;;;7.07;6.35;;;;;;;;;;4961844;28;20035;-76
2022/08/15 10:19:31;;;;;;;5.85;5.35;;;;;;;;;;4978523;28;20490;-77
2022/08/15 10:22:03;;;;;;;5.15;4.65;;;;;;;;;;4972501;28;20066;-78
2022/08/15 10:24:32;;;;;;;5.70;4.90;;;;;;;;;;4966700;28;20542;-76
2022/08/15 10:27:04;;;;;;;6.32;5.72;;;;;;;;;;4969928;28;20362;-77
2022/08/15 10:29:30;;;;;;;5.63;5.07;;;;;;;;;;4966833;28;20035;-78
2022/08/15 10:31:58;;;;;;;4.53;4.13;;;;;;;;;;4971945;28;20098;-78
2022/08/15 10:34:38;;;;;;;5.00;4.50;;;;;;;;;;4965584;28;20034;-77
2022/08/15 10:37:33;;;;;;;4.75;4.35;;;;;;;;;;4965725;28;20022;-78
2022/08/15 10:40:18;;;;;;;4.65;4.25;;;;;;;;;;4957547;28;20067;-80
2022/08/15 10:42:49;;;;;;;5.38;4.88;;;;;;;;;;4971291;28;20048;-77
2022/08/15 10:45:32;;;;;;;5.15;4.50;;;;;;;;;;4971475;28;20031;-78
2022/08/15 10:48:10;;;;;;;5.18;4.68;;;;;;;;;;4970424;28;20121;-77
2022/08/15 10:50:46;;;;;;;5.75;5.20;;;;;;;;;;4977961;28;20489;-78
2022/08/15 10:53:28;;;;;;;6.50;5.45;;;;;;;;;;4980235;28;20358;-77
2022/08/15 10:56:06;;;;;;;6.97;5.20;;;;;;;;;;4976733;28;20023;-77
2022/08/15 10:58:35;;;;;;;6.45;5.60;;;;;;;;;;4970150;28;20027;-78
2022/08/15 11:01:09;;;;;;;5.40;4.90;;;;;;;;;;4966226;28;20057;-77
2022/08/15 11:03:46;;;;;;;5.82;4.90;;;;;;;;;;4965519;28;20031;-79
2022/08/15 11:06:14;;;;;;;6.55;5.70;;;;;;;;;;4972061;28;20049;-78
2022/08/15 11:09:07;;;;;;;8.70;6.32;;;;;;;;;;4973279;28;20042;-78
2022/08/15 11:11:37;;;;;;;8.13;7.03;;;;;;;;;;4968516;28;20073;-78
2022/08/15 11:14:17;;;;;;;7.68;6.82;;;;;;;;;;4971704;28;20053;-77
2022/08/15 11:16:51;;;;;;;8.90;7.22;;;;;;;;;;4985454;28;20023;-78
2022/08/15 11:19:22;;;;;;;8.13;7.32;;;;;;;;;;4967922;28;20411;-78
2022/08/15 11:22:19;;;;;;;7.93;7.13;;;;;;;;;;4970072;28;20026;-78
2022/08/15 11:24:55;;;;;;;7.57;6.85;;;;;;;;;;4968618;28;20635;-77
2022/08/15 11:27:24;;;;;;;7.45;6.75;;;;;;;;;;4966930;28;20027;-78
2022/08/15 11:29:51;;;;;;;9.80;7.25;;;;;;;;;;4972586;28;20077;-78
2022/08/15 11:32:34;;;;;;;7.93;7.15;;;;;;;;;;4965176;28;20055;-79
2022/08/15 11:35:02;;;;;;;8.45;6.90;;;;;;;;;;4989862;28;20129;-78
2022/08/15 11:37:39;;;;;;;8.45;7.47;;;;;;;;;;4966997;28;20474;-78
2022/08/15 11:40:08;;;;;;;8.82;7.30;;;;;;;;;;4965103;28;20035;-80
2022/08/15 11:42:36;;;;;;;7.32;6.32;;;;;;;;;;4970933;28;20027;-79
2022/08/15 11:45:16;;;;;;;7.55;6.63;;;;;;;;;;4968566;28;20477;-79
2022/08/15 11:47:50;;;;;;;7.07;6.47;;;;;;;;;;4988390;28;20034;-79
2022/08/15 11:50:25;;;;;;;8.13;7.30;;;;;;;;;;4976791;28;20069;-83
2022/08/15 11:52:50;;;;;;;;;;;;;;;;;;4974687;28;20587;-79
2022/08/15 11:55:23;;;;;;;7.38;6.32;;;;;;;;;;4972095;28;19989;-80
2022/08/15 11:57:52;;;;;;;7.30;6.35;;;;;;;;;;4972991;28;20027;-80
2022/08/15 12:00:26;;;;;;;6.15;5.55;;;;;;;;;;4974035;28;20090;-79
2022/08/15 12:02:53;;;;;;;5.32;4.82;;;;;;;;;;4977712;28;20031;-81
2022/08/15 12:05:33;;;;;;;5.43;4.68;;;;;;;;;;4971736;28;20027;-80
2022/08/15 12:08:02;;;;;;;5.78;4.50;;;;;;;;;;4977934;28;20139;-80
2022/08/15 12:10:35;;;;;;;6.75;5.65;;;;;;;;;;4972504;28;20086;-80
2022/08/15 12:13:01;;;;;;;7.28;6.50;;;;;;;;;;4975067;28;20521;-81
2022/08/15 12:15:33;;;;;;;6.57;5.60;;;;;;;;;;4968136;28;20023;-79
2022/08/15 12:18:05;;;;;;;5.90;5.40;;;;;;;;;;4971137;28;20045;-78
2022/08/15 12:20:46;;;;;;;6.30;5.70;;;;;;;;;;4990392;28;20453;-79
2022/08/15 12:23:25;;;;;;;6.70;6.00;;;;;;;;;;4978694;28;20576;-81
2022/08/15 12:25:53;;;;;;;6.97;5.65;;;;;;;;;;4977893;28;20035;-80
2022/08/15 12:28:19;;;;;;;6.50;5.85;;;;;;;;;;4976329;28;20026;-81
2022/08/15 12:30:46;;;;;;;6.05;5.45;;;;;;;;;;4976202;28;20548;-80
2022/08/15 12:33:13;;;;;;;5.90;5.15;;;;;;;;;;4977333;28;20038;-79
2022/08/15 12:35:39;;;;;;;4.80;4.40;;;;;;;;;;4977487;28;20437;-80
2022/08/15 12:38:05;;;;;;;6.00;5.10;;;;;;;;;;4983365;28;20160;-79
2022/08/15 12:40:31;;;;;;;6.60;5.32;;;;;;;;;;4971605;28;20157;-80
2022/08/15 12:42:58;;;;;;;6.13;5.22;;;;;;;;;;4971696;28;20037;-81
2022/08/15 12:45:24;;;;;;;6.28;5.10;;;;;;;;;;4972767;28;20039;-78
2022/08/15 12:47:50;;;;;;;5.38;4.88;;;;;;;;;;4972674;28;20031;-79
2022/08/15 12:50:16;;;;;;;6.43;5.82;;;;;;;;;;4973783;28;20482;-80
2022/08/15 12:52:44;;;;;;;7.05;5.10;;;;;;;;;;4972036;28;20035;-78
2022/08/15 12:55:10;;;;;;;7.07;5.57;;;;;;;;;;4977551;28;20050;-79
2022/08/15 12:57:36;;;;;;;7.95;5.38;;;;;;;;;;4973441;28;20030;-80
2022/08/15 13:00:04;;;;;;;5.65;5.10;;;;;;;;;;4973220;28;20054;-78
2022/08/15 13:02:30;;;;;;;8.02;4.90;;;;;;;;;;4974621;28;20042;-81
2022/08/15 13:04:57;;;;;;;5.53;4.68;;;;;;;;;;4970370;28;20027;-79
2022/08/15 13:07:24;;;;;;;6.20;4.82;;;;;;;;;;4973874;28;20042;-80
2022/08/15 13:09:50;;;;;;;4.28;3.88;;;;;;;;;;4976409;28;20808;-80
2022/08/15 13:12:17;;;;;;;4.45;4.05;;;;;;;;;;4973570;28;20031;-80
2022/08/15 13:14:43;;;;;;;5.30;4.35;;;;;;;;;;4986475;28;20026;-80
2022/08/15 13:17:11;;;;;;;6.30;4.60;;;;;;;;;;4970669;28;20031;-81
2022/08/15 13:25:12;;;;;;;5.35;4.85;;;;;;;;;;4970534;28;20034;-79
2022/08/15 13:27:40;;;;;;;6.97;5.90;;;;;;;;;;4972376;28;20130;-79
2022/08/15 13:30:08;;;;;;;7.32;5.35;;;;;;;;;;4974186;28;20046;-80
2022/08/15 13:32:35;;;;;;;6.93;6.32;;;;;;;;;;4969233;28;20030;-80
2022/08/15 13:35:01;;;;;;;5.13;4.45;;;;;;;;;;4971647;28;20027;-81
2022/08/15 13:37:29;;;;;;;6.10;5.50;;;;;;;;;;4973029;28;20045;-81
2022/08/15 13:39:56;;;;;;;6.20;5.60;;;;;;;;;;4970576;28;20378;-80
2022/08/15 13:42:23;;;;;;;6.80;6.10;;;;;;;;;;4968311;28;20034;-80
2022/08/15 13:44:49;;;;;;;5.88;5.35;;;;;;;;;;4969467;28;20749;-80
2022/08/15 13:47:18;;;;;;;6.80;5.90;;;;;;;;;;4976278;28;20030;-79
2022/08/15 13:49:44;;;;;;;6.72;5.38;;;;;;;;;;4970004;28;20150;-79
2022/08/15 13:52:10;;;;;;;6.18;4.95;;;;;;;;;;4978745;28;20069;-79
2022/08/15 13:54:37;;;;;;;5.72;5.15;;;;;;;;;;4971752;28;20023;-79
2022/08/15 13:57:03;;;;;;;6.10;5.38;;;;;;;;;;4968376;28;20081;-79
2022/08/15 13:59:32;;;;;;;5.88;5.38;;;;;;;;;;4969262;28;20023;-78
2022/08/15 14:01:59;;;;;;;5.70;5.15;;;;;;;;;;4968817;28;20026;-79
2022/08/15 14:04:28;;;;;;;6.32;5.05;;;;;;;;;;4966376;28;20035;-77
2022/08/15 14:06:55;;;;;;;4.90;4.50;;;;;;;;;;4967026;28;20035;-79
2022/08/15 14:09:21;;;;;;;5.30;4.80;;;;;;;;;;4968660;28;20090;-78
2022/08/15 14:11:47;;;;;;;5.53;4.55;;;;;;;;;;4969884;28;20042;-79
2022/08/15 14:14:14;;;;;;;5.32;4.82;;;;;;;;;;4986275;28;20023;-79
2022/08/15 14:16:42;;;;;;;4.80;4.40;;;;;;;;;;4968237;28;20035;-81
2022/08/15 14:19:10;;;;;;;4.63;4.10;;;;;;;;;;4973390;28;20038;-78
2022/08/15 14:21:36;;;;;;;4.72;4.30;;;;;;;;;;4965112;28;20027;-79
2022/08/15 14:24:03;;;;;;;5.55;4.78;;;;;;;;;;4966309;28;20034;-79
2022/08/15 14:26:30;;;;;;;4.70;4.30;;;;;;;;;;4970202;28;20050;-80
2022/08/15 14:28:57;;;;;;;5.78;4.85;;;;;;;;;;4967355;28;20094;-80
2022/08/15 14:31:23;;;;;;;8.60;4.93;;;;;;;;;;4969266;28;20118;-78
2022/08/15 14:33:49;;;;;;;5.38;4.88;;;;;;;;;;4968233;28;20442;-78
2022/08/15 14:36:15;;;;;;;7.53;4.93;;;;;;;;;;4975512;28;20022;-79
2022/08/15 14:38:42;;;;;;;6.65;4.78;;;;;;;;;;4969094;28;20038;-79
2022/08/15 14:41:09;;;;;;;5.15;4.65;;;;;;;;;;4974236;28;20078;-78
2022/08/15 14:43:35;;;;;;;5.78;4.38;;;;;;;;;;4967151;28;20804;-79
2022/08/15 14:46:04;;;;;;;4.43;4.03;;;;;;;;;;4975502;28;20034;-80
2022/08/15 14:48:32;;;;;;;4.82;4.35;;;;;;;;;;4976330;28;20026;-79
2022/08/15 14:50:59;;;;;;;5.82;4.10;;;;;;;;;;4976770;28;20026;-79
2022/08/15 14:53:30;;;;;;;4.10;3.75;;;;;;;;;;4978372;28;20030;-78
2022/08/15 14:55:56;;;;;;;4.65;3.90;;;;;;;;;;4987069;28;20029;-79
2022/08/15 14:58:24;;;;;;;4.60;4.20;;;;;;;;;;4969476;28;20033;-80
2022/08/15 15:00:51;;;;;;;5.35;4.85;;;;;;;;;;4970962;28;20381;-78